Time;durP1;ratioP1;P1;durP2;ratioP2;P2;SDS_P1;SDS_P2;PMS_P1;PMS_P2;Temp;Humidity;BMP_temperature;BMP_pressure;BME280_temperature;BME280_humidity;BME280_pressure;Samples;Min_cycle;Max_cycle;Signal;HPM_P1;HPM_P2
2023/03/19 00:01:11;;;;;;;19.77;12.57;;;10.20;99.90;;;;;;4197748;28;20056;-83
2023/03/19 00:03:12;;;;;;;19.58;12.57;;;10.20;99.90;;;;;;4198117;28;20097;-83
2023/03/19 00:05:13;;;;;;;19.60;12.73;;;10.30;99.90;;;;;;4197699;28;20044;-83
2023/03/19 00:07:15;;;;;;;21.40;12.85;;;10.20;99.90;;;;;;4197739;28;20048;-83
2023/03/19 00:09:17;;;;;;;19.33;12.52;;;10.30;99.90;;;;;;4197512;28;20127;-83
2023/03/19 00:11:18;;;;;;;19.42;12.13;;;10.30;99.90;;;;;;4205672;28;20052;-84
2023/03/19 00:13:20;;;;;;;22.80;14.02;;;10.20;99.90;;;;;;4195961;28;20544;-83
2023/03/19 00:15:20;;;;;;;20.48;12.73;;;10.20;99.90;;;;;;4214579;28;20533;-83
2023/03/19 00:17:21;;;;;;;23.63;14.45;;;10.20;99.90;;;;;;4196163;28;20056;-83
2023/03/19 00:19:22;;;;;;;24.70;14.63;;;10.20;99.90;;;;;;4214739;28;20058;-83
2023/03/19 00:21:23;;;;;;;19.55;13.52;;;10.20;99.90;;;;;;4179784;28;20433;-84
2023/03/19 00:23:23;;;;;;;25.88;14.32;;;10.20;99.90;;;;;;4214139;28;20087;-83
2023/03/19 00:25:25;;;;;;;21.25;13.18;;;10.20;99.90;;;;;;4196249;28;20102;-83
2023/03/19 00:27:27;;;;;;;20.35;12.50;;;10.20;99.90;;;;;;4213693;28;20503;-83
2023/03/19 00:29:27;;;;;;;21.25;12.70;;;10.20;99.90;;;;;;4195264;28;20089;-82
2023/03/19 00:31:29;;;;;;;26.13;13.43;;;10.20;99.90;;;;;;4212286;28;20110;-84
2023/03/19 00:33:30;;;;;;;23.45;13.50;;;10.20;99.90;;;;;;4214020;28;20101;-84
2023/03/19 00:35:31;;;;;;;19.38;12.25;;;10.20;99.90;;;;;;4194574;28;20048;-84
2023/03/19 00:37:33;;;;;;;22.70;12.63;;;10.20;99.90;;;;;;4213448;28;20044;-84
2023/03/19 00:39:34;;;;;;;27.42;13.73;;;10.20;99.90;;;;;;4213384;28;20050;-83
2023/03/19 00:41:34;;;;;;;22.42;12.43;;;10.20;99.90;;;;;;4213159;28;20044;-85
2023/03/19 00:43:36;;;;;;;23.98;12.77;;;10.10;99.90;;;;;;4213126;28;20567;-82
2023/03/19 00:45:37;;;;;;;21.88;13.60;;;10.10;99.90;;;;;;4213819;28;20488;-85
2023/03/19 00:47:38;;;;;;;21.10;12.45;;;10.10;99.90;;;;;;4195806;28;20056;-83
2023/03/19 00:49:39;;;;;;;21.92;12.50;;;10.10;99.90;;;;;;4212429;28;20513;-82
2023/03/19 00:51:42;;;;;;;22.33;13.27;;;10.10;99.90;;;;;;4195555;28;20547;-83
2023/03/19 00:53:43;;;;;;;25.05;13.43;;;10.10;99.90;;;;;;4213627;28;20105;-83
2023/03/19 00:55:45;;;;;;;19.85;13.40;;;10.10;99.90;;;;;;4213243;28;20517;-83
2023/03/19 00:57:45;;;;;;;24.20;13.48;;;10.10;99.90;;;;;;4213105;28;20044;-84
2023/03/19 00:59:46;;;;;;;23.13;14.27;;;10.10;99.90;;;;;;4195283;28;20113;-83
2023/03/19 01:01:48;;;;;;;21.02;13.77;;;10.10;99.90;;;;;;4195983;28;20052;-83
2023/03/19 01:03:49;;;;;;;21.60;13.60;;;10.20;99.90;;;;;;4196109;28;20048;-83
2023/03/19 01:05:50;;;;;;;27.83;13.27;;;9.80;99.90;;;;;;4213192;28;20119;-85
2023/03/19 01:07:51;;;;;;;23.38;14.40;;;10.20;99.90;;;;;;4213486;28;20036;-84
2023/03/19 01:09:51;;;;;;;26.15;13.93;;;10.20;99.90;;;;;;4212207;28;20430;-84
2023/03/19 01:11:52;;;;;;;22.73;13.52;;;10.20;99.90;;;;;;4194874;28;20053;-84
2023/03/19 01:13:54;;;;;;;21.33;13.52;;;10.20;99.90;;;;;;4194865;28;20612;-83
2023/03/19 01:15:54;;;;;;;22.38;13.48;;;10.00;99.90;;;;;;4212941;28;20137;-84
2023/03/19 01:17:55;;;;;;;21.05;12.40;;;10.20;99.90;;;;;;4195252;28;20451;-84
2023/03/19 01:19:56;;;;;;;21.60;14.18;;;10.20;99.90;;;;;;4195408;28;20048;-84
2023/03/19 01:21:57;;;;;;;22.50;13.88;;;10.30;99.90;;;;;;4213120;28;20068;-84
2023/03/19 01:23:58;;;;;;;20.45;13.07;;;10.30;99.90;;;;;;4195163;28;20052;-84
2023/03/19 01:25:59;;;;;;;22.65;12.93;;;10.30;99.90;;;;;;4213366;28;20044;-83
2023/03/19 01:28:00;;;;;;;22.30;13.68;;;10.30;99.90;;;;;;4194799;28;20095;-84
2023/03/19 01:30:01;;;;;;;19.25;12.35;;;10.30;99.90;;;;;;4178683;28;20053;-84
2023/03/19 01:32:02;;;;;;;24.25;14.05;;;10.30;99.90;;;;;;4195095;28;20132;-83
2023/03/19 01:34:03;;;;;;;20.70;13.48;;;10.30;99.90;;;;;;4195284;28;20079;-84
2023/03/19 01:36:05;;;;;;;20.88;13.32;;;10.20;99.90;;;;;;4217980;28;20042;-84
2023/03/19 01:38:06;;;;;;;21.83;12.90;;;10.30;99.90;;;;;;4229334;28;20122;-83
2023/03/19 01:40:12;;;;;;;20.02;12.05;;;10.30;99.90;;;;;;4229632;28;20040;-84
2023/03/19 01:42:12;;;;;;;19.77;12.02;;;10.30;99.90;;;;;;4194825;28;20128;-84
2023/03/19 01:44:32;;;;;;;21.30;12.20;;;10.30;99.90;;;;;;4229710;28;20039;-84
2023/03/19 01:46:37;;;;;;;23.95;12.52;;;10.30;99.90;;;;;;4229467;28;20128;-84
2023/03/19 01:48:47;;;;;;;18.85;11.85;;;10.30;99.90;;;;;;4213554;28;20052;-83
2023/03/19 01:50:52;;;;;;;21.30;10.75;;;10.30;99.90;;;;;;4198634;28;20535;-84
2023/03/19 01:52:53;;;;;;;16.02;10.18;;;10.30;99.90;;;;;;4214561;28;20063;-83
2023/03/19 01:54:55;;;;;;;18.13;10.35;;;10.30;99.90;;;;;;4214802;28;20447;-83
2023/03/19 01:57:04;;;;;;;19.40;10.48;;;10.30;99.90;;;;;;4232528;28;20048;-83
2023/03/19 01:59:13;;;;;;;16.40;10.43;;;10.40;99.90;;;;;;4231959;28;20044;-83
2023/03/19 02:01:14;;;;;;;18.80;10.40;;;10.40;99.90;;;;;;4232382;28;20483;-84
2023/03/19 02:03:16;;;;;;;17.08;10.13;;;10.40;99.90;;;;;;4232481;28;20036;-84
2023/03/19 02:05:24;;;;;;;15.27;8.98;;;10.40;99.90;;;;;;4232849;28;20047;-83
2023/03/19 02:07:26;;;;;;;17.58;10.18;;;10.40;99.90;;;;;;4232509;28;20078;-83
2023/03/19 02:09:28;;;;;;;15.65;8.77;;;10.50;99.90;;;;;;4198504;28;20051;-84
2023/03/19 02:11:30;;;;;;;15.50;9.93;;;10.50;99.90;;;;;;4232589;28;20060;-83
2023/03/19 02:13:30;;;;;;;11.93;8.13;;;10.50;99.90;;;;;;4232252;28;20048;-84
2023/03/19 02:15:32;;;;;;;12.85;8.32;;;10.50;99.90;;;;;;4232724;28;20403;-84
2023/03/19 02:17:33;;;;;;;13.88;7.00;;;10.50;99.90;;;;;;4232564;28;20042;-84
2023/03/19 02:19:47;;;;;;;14.40;6.70;;;10.50;99.90;;;;;;4214602;28;20052;-84
2023/03/19 02:21:48;;;;;;;11.50;6.68;;;10.50;99.90;;;;;;4232800;28;20086;-83
2023/03/19 02:24:20;;;;;;;10.77;6.13;;;10.50;99.90;;;;;;4232511;28;20437;-83
2023/03/19 02:26:22;;;;;;;10.20;6.53;;;10.50;99.90;;;;;;4232548;28;20048;-84
2023/03/19 02:28:23;;;;;;;10.25;6.10;;;10.50;99.90;;;;;;4197682;28;20052;-83
2023/03/19 02:30:33;;;;;;;12.23;6.80;;;10.50;99.90;;;;;;4214355;28;20052;-83
2023/03/19 02:32:33;;;;;;;;;;;10.50;99.90;;;;;;4198107;28;20479;-83
2023/03/19 02:34:37;;;;;;;13.25;6.95;;;10.50;99.90;;;;;;4214179;28;19920;-84
2023/03/19 02:36:44;;;;;;;12.52;7.70;;;10.50;99.90;;;;;;4222145;28;20040;-83
2023/03/19 02:38:46;;;;;;;14.82;8.30;;;10.50;99.90;;;;;;4215498;28;20043;-83
2023/03/19 02:40:52;;;;;;;10.77;6.97;;;10.40;99.90;;;;;;4197729;28;20055;-83
2023/03/19 02:42:53;;;;;;;15.82;8.75;;;10.40;99.90;;;;;;4181217;28;20056;-84
2023/03/19 02:44:54;;;;;;;17.08;10.15;;;10.40;99.90;;;;;;4196918;28;20649;-83
2023/03/19 02:46:55;;;;;;;13.48;8.80;;;10.40;99.90;;;;;;4197685;28;20044;-83
2023/03/19 02:48:55;;;;;;;14.20;8.40;;;10.40;99.90;;;;;;4197287;28;20059;-83
2023/03/19 02:50:56;;;;;;;15.15;8.43;;;10.30;99.90;;;;;;4215432;28;20036;-83
2023/03/19 02:52:57;;;;;;;12.50;7.68;;;10.40;99.90;;;;;;4214506;28;20052;-84
2023/03/19 02:54:57;;;;;;;12.55;8.10;;;10.30;99.90;;;;;;4197213;28;20053;-83
2023/03/19 02:56:58;;;;;;;13.00;8.05;;;10.30;99.90;;;;;;4180656;28;20505;-83
2023/03/19 02:58:59;;;;;;;12.95;7.75;;;10.30;99.90;;;;;;4196455;28;20116;-83
2023/03/19 03:01:01;;;;;;;13.30;8.05;;;10.30;99.90;;;;;;4215415;28;20445;-83
2023/03/19 03:03:04;;;;;;;11.65;7.60;;;10.30;99.90;;;;;;4214087;28;20486;-83
2023/03/19 03:05:05;;;;;;;14.43;8.27;;;10.30;99.90;;;;;;4197445;28;20126;-84
2023/03/19 03:07:07;;;;;;;13.52;7.50;;;10.30;99.90;;;;;;4196869;28;20048;-84
2023/03/19 03:09:08;;;;;;;12.63;7.03;;;10.30;99.90;;;;;;4215056;28;20040;-83
2023/03/19 03:11:09;;;;;;;12.50;7.28;;;10.30;99.90;;;;;;4214807;28;20135;-83
2023/03/19 03:13:10;;;;;;;11.13;6.88;;;10.30;99.90;;;;;;4214752;28;20055;-83
2023/03/19 03:15:11;;;;;;;13.85;7.47;;;10.30;99.90;;;;;;4215539;28;20090;-83
2023/03/19 03:17:12;;;;;;;13.10;7.40;;;10.30;99.90;;;;;;4215511;28;20047;-83
2023/03/19 03:19:13;;;;;;;14.35;7.25;;;10.30;99.90;;;;;;4214930;28;20040;-83
2023/03/19 03:21:14;;;;;;;12.30;7.00;;;10.30;99.90;;;;;;4214990;28;20488;-83
2023/03/19 03:23:15;;;;;;;9.38;6.22;;;9.70;99.90;;;;;;4214946;28;20484;-83
2023/03/19 03:25:16;;;;;;;11.93;6.25;;;10.20;99.90;;;;;;4214448;28;20408;-84
2023/03/19 03:27:17;;;;;;;10.48;6.38;;;10.30;99.90;;;;;;4214607;28;20048;-84
2023/03/19 03:29:19;;;;;;;11.30;5.80;;;10.20;99.90;;;;;;4180386;28;20095;-84
2023/03/19 03:31:20;;;;;;;10.55;5.78;;;10.30;99.90;;;;;;4196742;28;20386;-84
2023/03/19 03:33:21;;;;;;;9.45;6.10;;;10.20;99.90;;;;;;4214723;28;20047;-83
2023/03/19 03:35:22;;;;;;;9.30;5.88;;;10.20;99.90;;;;;;4180395;28;20076;-83
2023/03/19 03:37:22;;;;;;;9.60;5.70;;;10.30;99.90;;;;;;4230782;28;20032;-83
2023/03/19 03:39:23;;;;;;;10.55;5.53;;;10.20;99.90;;;;;;4231478;28;20044;-83
2023/03/19 03:41:25;;;;;;;10.43;5.93;;;10.20;99.90;;;;;;4198084;28;20052;-84
2023/03/19 03:43:26;;;;;;;9.63;5.00;;;10.20;99.90;;;;;;4179965;28;20049;-84
2023/03/19 03:45:26;;;;;;;8.77;5.47;;;10.20;99.90;;;;;;4214449;28;20089;-83
2023/03/19 03:47:27;;;;;;;9.50;5.22;;;10.20;99.90;;;;;;4179759;28;20178;-84
2023/03/19 03:49:28;;;;;;;8.30;4.57;;;10.20;99.90;;;;;;4179807;28;20554;-84
2023/03/19 03:51:30;;;;;;;7.50;5.20;;;10.20;99.90;;;;;;4214400;28;20036;-84
2023/03/19 03:53:31;;;;;;;7.63;5.15;;;10.20;99.90;;;;;;4195708;28;20048;-84
2023/03/19 03:55:31;;;;;;;7.05;4.25;;;10.20;99.90;;;;;;4196442;28;20492;-84
2023/03/19 03:57:32;;;;;;;9.50;5.57;;;10.30;99.90;;;;;;4180159;28;20049;-84
2023/03/19 03:59:33;;;;;;;8.02;4.38;;;10.20;99.90;;;;;;4179605;28;20418;-84
2023/03/19 04:01:35;;;;;;;9.07;4.75;;;10.20;99.90;;;;;;4209045;28;20075;-83
2023/03/19 04:03:35;;;;;;;9.45;4.32;;;10.20;99.90;;;;;;4196580;28;20060;-83
2023/03/19 04:05:37;;;;;;;8.02;4.20;;;10.30;99.90;;;;;;4243296;28;20044;-83
2023/03/19 04:07:38;;;;;;;7.53;4.32;;;10.30;99.90;;;;;;4241402;28;20048;-84
2023/03/19 04:09:40;;;;;;;8.45;4.13;;;10.30;99.90;;;;;;4197956;28;20084;-84
2023/03/19 04:11:41;;;;;;;6.55;4.30;;;10.20;99.90;;;;;;4199665;28;20483;-84
2023/03/19 04:13:41;;;;;;;5.60;3.72;;;10.30;99.90;;;;;;4197013;28;20152;-84
2023/03/19 04:15:43;;;;;;;10.35;4.63;;;10.30;99.90;;;;;;4214421;28;20369;-84
2023/03/19 04:17:44;;;;;;;9.10;4.40;;;10.20;99.90;;;;;;4214495;28;20043;-84
2023/03/19 04:19:44;;;;;;;8.63;4.47;;;10.30;99.90;;;;;;4214373;28;20036;-84
2023/03/19 04:21:45;;;;;;;9.07;4.13;;;10.20;99.90;;;;;;4214140;28;20040;-84
2023/03/19 04:23:46;;;;;;;8.20;4.70;;;10.20;99.90;;;;;;4214386;28;20508;-84
2023/03/19 04:25:48;;;;;;;7.80;3.95;;;10.30;99.90;;;;;;4214281;28;20048;-84
2023/03/19 04:27:49;;;;;;;8.20;4.60;;;10.20;99.90;;;;;;4213956;28;20407;-84
2023/03/19 04:29:50;;;;;;;7.18;4.65;;;10.20;99.90;;;;;;4214215;28;20040;-84
2023/03/19 04:31:51;;;;;;;6.60;4.43;;;10.20;99.90;;;;;;4213043;28;20241;-83
2023/03/19 04:33:52;;;;;;;8.40;4.13;;;10.20;99.90;;;;;;4214162;28;20048;-84
2023/03/19 04:35:54;;;;;;;7.88;4.30;;;10.30;99.90;;;;;;4182367;28;20046;-84
2023/03/19 04:37:55;;;;;;;11.90;5.10;;;10.30;99.90;;;;;;4232939;28;20079;-84
2023/03/19 04:39:56;;;;;;;10.60;5.20;;;10.20;99.90;;;;;;4212883;28;20052;-83
2023/03/19 04:41:57;;;;;;;10.38;4.40;;;10.20;99.90;;;;;;4212561;28;20052;-83
2023/03/19 04:43:58;;;;;;;6.97;4.68;;;10.20;99.90;;;;;;4213169;28;20488;-83
2023/03/19 04:46:00;;;;;;;8.13;4.43;;;10.30;99.90;;;;;;4212188;28;20058;-84
2023/03/19 04:48:01;;;;;;;7.25;4.28;;;10.30;99.90;;;;;;4212744;28;20055;-83
2023/03/19 04:50:02;;;;;;;7.93;4.78;;;10.20;99.90;;;;;;4230907;28;20113;-84
2023/03/19 04:52:03;;;;;;;6.85;4.40;;;10.30;99.90;;;;;;4213330;28;20052;-84
2023/03/19 04:54:04;;;;;;;6.80;4.03;;;10.20;99.90;;;;;;4230568;28;20040;-82
2023/03/19 04:56:06;;;;;;;5.57;3.90;;;10.30;99.90;;;;;;4212437;28;20127;-82
2023/03/19 04:58:10;;;;;;;8.95;4.30;;;10.20;99.90;;;;;;4212633;28;20056;-82
2023/03/19 05:00:13;;;;;;;5.85;4.22;;;10.20;99.90;;;;;;4212618;28;20052;-83
2023/03/19 05:02:15;;;;;;;7.13;4.03;;;10.20;99.90;;;;;;4195749;28;20049;-82
2023/03/19 05:04:16;;;;;;;7.15;4.78;;;10.20;99.90;;;;;;4230802;28;20065;-83
2023/03/19 05:06:18;;;;;;;6.65;4.07;;;10.20;99.90;;;;;;4230495;28;20047;-82
2023/03/19 05:08:19;;;;;;;7.30;4.10;;;10.20;99.90;;;;;;4211980;28;20052;-83
2023/03/19 05:10:20;;;;;;;7.63;4.55;;;10.20;99.90;;;;;;4212082;28;20055;-83
2023/03/19 05:12:21;;;;;;;6.35;4.57;;;10.20;99.90;;;;;;4212137;28;20472;-83
2023/03/19 05:14:22;;;;;;;5.90;4.03;;;10.20;99.90;;;;;;4230511;28;20069;-83
2023/03/19 05:16:22;;;;;;;6.90;4.53;;;10.20;99.90;;;;;;4230573;28;20111;-84
2023/03/19 05:18:23;;;;;;;8.13;4.10;;;10.20;99.90;;;;;;4212254;28;20051;-84
2023/03/19 05:20:24;;;;;;;7.40;4.32;;;10.20;99.90;;;;;;4208757;28;20044;-84
2023/03/19 05:22:25;;;;;;;8.25;4.32;;;10.20;99.90;;;;;;4215384;28;20042;-84
2023/03/19 05:24:25;;;;;;;6.30;4.13;;;10.20;99.90;;;;;;4198504;28;20048;-83
2023/03/19 05:26:26;;;;;;;6.88;4.60;;;10.10;99.90;;;;;;4216313;28;20480;-83
2023/03/19 05:28:27;;;;;;;6.38;4.07;;;10.10;99.90;;;;;;4198491;28;20058;-83
2023/03/19 05:30:28;;;;;;;12.32;5.40;;;10.20;99.90;;;;;;4197692;28;20087;-83
2023/03/19 05:32:29;;;;;;;9.70;4.80;;;10.50;99.90;;;;;;4216459;28;20043;-83
2023/03/19 05:34:30;;;;;;;11.32;5.35;;;10.10;99.90;;;;;;4216317;28;20043;-84
2023/03/19 05:36:32;;;;;;;8.23;5.10;;;10.10;99.90;;;;;;4207001;28;20126;-83
2023/03/19 05:38:33;;;;;;;8.27;4.97;;;10.10;99.90;;;;;;4232960;28;20114;-83
2023/03/19 05:40:34;;;;;;;9.10;5.03;;;10.00;99.90;;;;;;4214663;28;20071;-83
2023/03/19 05:42:35;;;;;;;8.38;4.53;;;10.00;99.90;;;;;;4214334;28;20047;-84
2023/03/19 05:44:36;;;;;;;8.23;5.13;;;10.00;99.90;;;;;;4214787;28;20052;-84
2023/03/19 05:46:37;;;;;;;11.27;5.65;;;10.00;99.90;;;;;;4214399;28;20575;-84
2023/03/19 05:48:38;;;;;;;10.90;5.65;;;10.00;99.90;;;;;;4214695;28;20040;-83
2023/03/19 05:50:38;;;;;;;8.02;5.07;;;10.00;99.90;;;;;;4214729;28;20055;-84
2023/03/19 05:52:39;;;;;;;8.27;4.70;;;9.90;99.90;;;;;;4231903;28;20551;-83
2023/03/19 05:54:40;;;;;;;9.00;5.13;;;9.90;99.90;;;;;;4232884;28;20443;-83
2023/03/19 05:56:42;;;;;;;8.50;5.57;;;9.90;99.90;;;;;;4214470;28;20558;-83
2023/03/19 05:58:43;;;;;;;8.55;5.30;;;9.80;99.90;;;;;;4214470;28;20119;-83
2023/03/19 06:00:43;;;;;;;8.32;5.03;;;9.80;99.90;;;;;;4214523;28;20515;-84
2023/03/19 06:02:44;;;;;;;8.95;5.40;;;9.80;99.90;;;;;;4214476;28;20407;-84
2023/03/19 06:04:45;;;;;;;9.88;5.75;;;9.70;99.90;;;;;;4197370;28;20044;-84
2023/03/19 06:06:46;;;;;;;8.77;5.55;;;9.70;99.90;;;;;;4214745;28;20068;-84
2023/03/19 06:08:47;;;;;;;8.57;5.25;;;9.70;99.90;;;;;;4214954;28;20400;-84
2023/03/19 06:10:48;;;;;;;12.38;4.90;;;9.70;99.90;;;;;;4233285;28;20062;-83
2023/03/19 06:12:50;;;;;;;10.32;5.13;;;9.60;99.90;;;;;;4232695;28;20540;-83
2023/03/19 06:14:52;;;;;;;8.20;5.03;;;9.60;99.90;;;;;;4214710;28;20124;-83
2023/03/19 06:16:52;;;;;;;7.20;4.65;;;9.60;99.90;;;;;;4222173;28;20048;-83
2023/03/19 06:18:53;;;;;;;7.57;4.38;;;9.60;99.90;;;;;;4247750;28;20046;-83
2023/03/19 06:20:54;;;;;;;8.18;4.85;;;9.50;99.90;;;;;;4246486;28;20073;-84
2023/03/19 06:22:55;;;;;;;7.88;5.15;;;9.50;99.90;;;;;;4226236;28;20051;-84
2023/03/19 06:24:56;;;;;;;10.63;4.32;;;9.50;99.90;;;;;;4201785;28;20131;-84
2023/03/19 06:26:57;;;;;;;10.32;4.45;;;9.50;99.90;;;;;;4236151;28;20096;-84
2023/03/19 06:28:58;;;;;;;6.38;4.30;;;9.50;99.90;;;;;;4198269;28;20522;-83
2023/03/19 06:30:59;;;;;;;7.95;4.55;;;9.50;99.90;;;;;;4233246;28;20518;-84
2023/03/19 06:33:00;;;;;;;6.82;4.63;;;9.50;99.90;;;;;;4233340;28;20044;-83
2023/03/19 06:35:01;;;;;;;7.68;4.18;;;9.50;99.90;;;;;;4215162;28;20084;-83
2023/03/19 06:37:02;;;;;;;9.13;4.72;;;9.60;99.90;;;;;;4214016;28;20140;-83
2023/03/19 06:39:03;;;;;;;9.68;4.95;;;9.60;99.90;;;;;;4218913;28;20043;-83
2023/03/19 06:41:04;;;;;;;7.55;4.53;;;9.60;99.90;;;;;;4236092;28;20034;-83
2023/03/19 06:43:04;;;;;;;9.02;5.10;;;9.60;99.90;;;;;;4219335;28;20036;-83
2023/03/19 06:45:06;;;;;;;8.25;4.85;;;9.60;99.90;;;;;;4253645;28;20066;-83
2023/03/19 06:47:07;;;;;;;8.65;4.82;;;9.70;99.90;;;;;;4219409;28;20064;-84
2023/03/19 06:49:09;;;;;;;10.00;5.22;;;9.70;99.90;;;;;;4253262;28;20028;-83
2023/03/19 06:51:10;;;;;;;8.95;4.93;;;9.70;99.90;;;;;;4236164;28;20048;-84
2023/03/19 06:53:10;;;;;;;10.57;6.05;;;9.70;99.90;;;;;;4219378;28;20064;-83
2023/03/19 06:55:11;;;;;;;9.30;5.20;;;9.70;99.90;;;;;;4253518;28;20044;-84
2023/03/19 06:57:13;;;;;;;8.98;4.75;;;9.80;99.90;;;;;;4236175;28;20036;-83
2023/03/19 06:59:14;;;;;;;8.43;5.05;;;9.80;99.90;;;;;;4235719;28;20048;-83
2023/03/19 07:01:15;;;;;;;9.55;5.05;;;9.80;99.90;;;;;;4253681;28;20031;-83
2023/03/19 07:03:16;;;;;;;9.07;5.55;;;9.80;99.90;;;;;;4253504;28;20035;-83
2023/03/19 07:05:16;;;;;;;9.30;5.28;;;9.90;99.90;;;;;;4253262;28;20024;-83
2023/03/19 07:07:18;;;;;;;7.43;4.65;;;9.90;99.90;;;;;;4236155;28;20071;-83
2023/03/19 07:09:19;;;;;;;10.05;5.43;;;10.00;99.90;;;;;;4253205;28;20023;-83
2023/03/19 07:11:19;;;;;;;7.38;4.60;;;10.00;99.90;;;;;;4232783;28;20066;-83
2023/03/19 07:13:21;;;;;;;6.40;4.10;;;10.20;99.90;;;;;;4233165;28;20059;-83
2023/03/19 07:15:21;;;;;;;7.65;4.70;;;10.10;99.90;;;;;;4232211;28;20051;-83
2023/03/19 07:17:24;;;;;;;8.15;4.95;;;10.10;99.90;;;;;;4212022;28;20423;-83
2023/03/19 07:19:24;;;;;;;10.05;5.10;;;10.20;99.90;;;;;;4215001;28;20109;-83
2023/03/19 07:21:25;;;;;;;7.45;4.70;;;10.20;99.90;;;;;;4180545;28;20048;-84
2023/03/19 07:23:26;;;;;;;9.13;5.10;;;10.30;99.90;;;;;;4215316;28;20515;-83
2023/03/19 07:25:27;;;;;;;11.45;5.60;;;10.30;99.90;;;;;;4196545;28;20050;-83
2023/03/19 07:27:27;;;;;;;8.40;4.78;;;10.50;99.90;;;;;;4214785;28;20500;-83
2023/03/19 07:29:28;;;;;;;10.15;5.20;;;10.50;99.90;;;;;;4214988;28;20089;-83
2023/03/19 07:31:29;;;;;;;9.38;5.25;;;10.50;99.90;;;;;;4214771;28;20044;-83
2023/03/19 07:33:30;;;;;;;8.98;5.28;;;10.60;99.90;;;;;;4214638;28;20493;-83
2023/03/19 07:35:31;;;;;;;11.65;5.40;;;10.60;99.90;;;;;;4173467;28;20102;-83
2023/03/19 07:37:31;;;;;;;10.32;6.18;;;10.70;99.90;;;;;;4180229;28;20069;-83
2023/03/19 07:39:32;;;;;;;11.70;6.18;;;10.80;99.90;;;;;;4196378;28;20084;-83
2023/03/19 07:41:33;;;;;;;9.90;5.80;;;10.80;99.90;;;;;;4214490;28;20041;-83
2023/03/19 07:43:34;;;;;;;12.32;6.53;;;11.10;99.90;;;;;;4214732;28;20480;-83
2023/03/19 07:45:35;;;;;;;13.10;5.93;;;11.40;99.90;;;;;;4195318;28;20445;-83
2023/03/19 07:47:35;;;;;;;11.45;6.18;;;11.80;99.90;;;;;;4214515;28;20044;-83
2023/03/19 07:49:37;;;;;;;10.15;6.03;;;12.10;99.90;;;;;;4213036;28;20438;-83
2023/03/19 07:51:38;;;;;;;10.50;6.55;;;12.50;99.90;;;;;;4198435;28;20044;-84
2023/03/19 07:53:39;;;;;;;11.65;6.90;;;12.90;99.90;;;;;;4214951;28;20448;-84
2023/03/19 07:55:39;;;;;;;10.25;5.93;;;13.30;99.90;;;;;;4214148;28;20040;-84
2023/03/19 07:57:40;;;;;;;8.50;6.10;;;13.60;99.90;;;;;;4187424;28;20568;-84
2023/03/19 07:59:41;;;;;;;9.25;5.90;;;13.80;99.90;;;;;;4231136;28;20051;-84
2023/03/19 08:01:42;;;;;;;9.27;6.05;;;13.80;99.90;;;;;;4213265;28;20510;-84
2023/03/19 08:03:43;;;;;;;9.02;5.93;;;13.40;99.90;;;;;;4197446;28;20044;-84
2023/03/19 08:05:44;;;;;;;8.63;5.72;;;13.10;99.90;;;;;;4224108;28;20092;-84
2023/03/19 08:07:44;;;;;;;10.00;6.07;;;13.00;99.90;;;;;;4234995;28;20032;-84
2023/03/19 08:09:45;;;;;;;10.30;6.00;;;13.00;99.90;;;;;;4244421;28;20027;-84
2023/03/19 08:11:46;;;;;;;11.00;6.55;;;13.00;99.90;;;;;;4217958;28;20071;-84
2023/03/19 08:13:48;;;;;;;9.77;6.30;;;12.90;99.90;;;;;;4234982;28;20059;-84
2023/03/19 08:15:50;;;;;;;11.60;6.85;;;12.90;99.90;;;;;;4235172;28;20044;-84
2023/03/19 08:18:00;;;;;;;10.25;6.30;;;12.70;99.90;;;;;;4235082;28;20039;-84
2023/03/19 08:20:01;;;;;;;11.02;7.38;;;12.40;99.90;;;;;;4217986;28;20036;-84
2023/03/19 08:22:02;;;;;;;11.73;7.35;;;12.30;99.90;;;;;;4200689;28;20052;-84
2023/03/19 08:24:03;;;;;;;12.88;7.03;;;12.20;99.90;;;;;;4217569;28;20056;-84
2023/03/19 08:26:04;;;;;;;12.52;7.13;;;12.20;99.90;;;;;;4235012;28;20054;-84
2023/03/19 08:28:04;;;;;;;13.90;7.55;;;12.30;99.90;;;;;;4217962;28;20052;-84
2023/03/19 08:30:07;;;;;;;14.35;7.63;;;12.20;99.90;;;;;;4235166;28;20024;-84
2023/03/19 08:32:08;;;;;;;12.68;7.90;;;12.20;99.90;;;;;;4217216;28;20032;-84
2023/03/19 08:34:10;;;;;;;12.90;8.18;;;12.50;99.90;;;;;;4235238;28;20020;-84
2023/03/19 08:36:13;;;;;;;13.75;8.43;;;12.60;99.90;;;;;;4219984;28;20044;-84
2023/03/19 08:38:14;;;;;;;13.40;7.75;;;12.80;99.90;;;;;;4245931;28;20039;-84
2023/03/19 08:40:15;;;;;;;14.02;7.75;;;13.20;99.90;;;;;;4231246;28;20040;-84
2023/03/19 08:42:15;;;;;;;15.07;8.48;;;13.50;99.90;;;;;;4231155;28;20398;-84
2023/03/19 08:44:16;;;;;;;14.55;7.80;;;13.70;99.90;;;;;;4231118;28;20071;-84
2023/03/19 08:46:17;;;;;;;12.77;8.25;;;13.70;99.90;;;;;;4230746;28;20457;-84
2023/03/19 08:48:18;;;;;;;13.07;8.00;;;13.40;99.90;;;;;;4213083;28;20516;-84
2023/03/19 08:50:19;;;;;;;14.55;8.63;;;13.00;99.90;;;;;;4212899;28;20456;-84
2023/03/19 08:52:20;;;;;;;13.57;7.95;;;12.70;99.90;;;;;;4213354;28;20040;-84
2023/03/19 08:54:20;;;;;;;14.02;8.18;;;12.50;99.90;;;;;;4231037;28;20043;-84
2023/03/19 08:56:22;;;;;;;13.40;7.65;;;12.30;99.90;;;;;;4213402;28;20525;-84
2023/03/19 08:58:24;;;;;;;14.23;8.32;;;12.20;99.90;;;;;;4239780;28;20086;-84
2023/03/19 09:00:24;;;;;;;13.75;8.00;;;12.30;99.90;;;;;;4199560;28;20516;-84
2023/03/19 09:02:25;;;;;;;13.82;8.63;;;12.30;99.90;;;;;;4234276;28;20043;-84
2023/03/19 09:04:26;;;;;;;11.75;7.80;;;12.50;99.90;;;;;;4233846;28;20032;-83
2023/03/19 09:06:27;;;;;;;14.55;8.80;;;12.60;99.90;;;;;;4215694;28;20149;-84
2023/03/19 09:08:30;;;;;;;14.10;8.63;;;12.60;99.90;;;;;;4233881;28;20043;-84
2023/03/19 09:10:31;;;;;;;11.23;7.18;;;12.60;99.90;;;;;;4215368;28;20103;-84
2023/03/19 09:12:32;;;;;;;11.48;6.93;;;12.60;99.90;;;;;;4215683;28;20032;-84
2023/03/19 09:14:34;;;;;;;13.40;7.28;;;12.50;99.90;;;;;;4198338;28;20049;-84
2023/03/19 09:16:35;;;;;;;11.80;7.07;;;12.40;99.90;;;;;;4233569;28;20040;-84
2023/03/19 09:18:36;;;;;;;11.40;6.95;;;12.40;99.90;;;;;;4215488;28;20036;-84
2023/03/19 09:20:36;;;;;;;13.57;7.20;;;12.40;99.90;;;;;;4215461;28;20048;-84
2023/03/19 09:22:37;;;;;;;13.38;7.70;;;12.40;99.90;;;;;;4198637;28;20438;-84
2023/03/19 09:24:38;;;;;;;12.68;7.90;;;12.40;99.90;;;;;;4198826;28;20404;-84
2023/03/19 09:26:40;;;;;;;13.55;7.00;;;12.50;99.90;;;;;;4210939;28;20118;-84
2023/03/19 09:28:44;;;;;;;11.23;6.38;;;12.60;99.90;;;;;;4201201;28;20134;-85
2023/03/19 09:30:46;;;;;;;11.68;6.70;;;13.60;99.90;;;;;;4233781;28;20047;-85
2023/03/19 09:32:47;;;;;;;11.95;6.78;;;13.80;99.90;;;;;;4215752;28;20051;-84
2023/03/19 09:34:48;;;;;;;15.63;7.13;;;13.50;99.90;;;;;;4233670;28;20404;-85
2023/03/19 09:36:48;;;;;;;11.98;6.68;;;13.30;99.90;;;;;;4197838;28;20123;-84
2023/03/19 09:38:49;;;;;;;13.18;7.47;;;13.00;99.90;;;;;;4215501;28;20044;-85
2023/03/19 09:41:19;;;;;;;11.73;6.78;;;12.80;99.90;;;;;;4208741;28;20055;-85
2023/03/19 09:43:26;;;;;;;10.30;6.68;;;12.60;99.90;;;;;;4202595;28;20478;-85
2023/03/19 09:45:28;;;;;;;13.18;6.97;;;12.50;99.90;;;;;;4231925;28;20412;-85
2023/03/19 09:47:35;;;;;;;12.73;7.88;;;12.40;99.90;;;;;;4215185;28;20101;-85
2023/03/19 09:49:43;;;;;;;14.02;7.90;;;12.30;99.90;;;;;;4199642;28;20083;-84
2023/03/19 09:51:57;;;;;;;12.37;7.20;;;12.30;99.90;;;;;;4234570;28;20456;-85
2023/03/19 09:54:05;;;;;;;12.63;6.97;;;12.30;99.90;;;;;;4200808;28;20049;-85
2023/03/19 09:56:11;;;;;;;11.27;6.15;;;12.30;99.90;;;;;;4216086;28;20036;-85
2023/03/19 09:58:21;;;;;;;12.30;7.53;;;12.40;99.90;;;;;;4207676;28;20044;-84
2023/03/19 10:00:51;;;;;;;13.10;7.30;;;12.40;99.90;;;;;;4195920;28;20044;-85
2023/03/19 10:03:27;;;;;;;13.10;7.57;;;12.50;99.90;;;;;;4196927;28;20495;-84
2023/03/19 10:05:51;;;;;;;12.07;7.30;;;12.60;99.90;;;;;;4215264;28;20072;-85
2023/03/19 10:08:17;;;;;;;12.82;7.30;;;12.60;99.90;;;;;;4194298;28;20143;-85
2023/03/19 10:10:45;;;;;;;11.80;6.90;;;12.60;99.90;;;;;;4214668;28;20094;-84
2023/03/19 10:12:49;;;;;;;10.90;6.88;;;12.60;99.90;;;;;;4198115;28;20123;-84
2023/03/19 10:15:18;;;;;;;10.35;6.45;;;12.60;99.90;;;;;;4199615;28;20044;-84
2023/03/19 10:17:31;;;;;;;11.32;6.65;;;12.50;99.90;;;;;;4180964;28;20864;-85
2023/03/19 10:20:05;;;;;;;10.65;6.70;;;12.50;99.90;;;;;;4187334;28;20083;-84
2023/03/19 10:22:11;;;;;;;10.13;6.75;;;12.40;99.90;;;;;;4197133;28;20101;-84
2023/03/19 10:24:44;;;;;;;10.35;6.05;;;12.40;99.90;;;;;;4181740;28;20475;-84
2023/03/19 10:26:46;;;;;;;11.98;7.22;;;12.50;99.90;;;;;;4178117;28;20056;-84
2023/03/19 10:29:09;;;;;;;10.57;6.88;;;12.50;99.90;;;;;;4181971;28;20099;-84
2023/03/19 10:31:39;;;;;;;11.70;7.03;;;12.60;99.90;;;;;;4182000;28;20088;-84
2023/03/19 10:33:58;;;;;;;10.73;6.65;;;12.60;99.90;;;;;;4183472;28;20056;-83